Thursday, August 16, 2018, 5:55 AM GMT
Back to Local

CYTR, Trenton, Ont.

Location: , , Canada Lat: 44.117
Local Time: 5:55 AM GMT ( 5:55 GMT) Lon: -77.533
Time Zone: GMT Elev: 278 ft

Show me the last for .
Show Decoded

2018-08-16 05:00 METAR CYTR 160500Z 01002KT 10SM FEW090 19/18 A2996 RMK AC2 SLP147 =
2018-08-16 04:00 METAR CYTR 160400Z 00000KT 10SM FEW050 FEW250 20/19 A2995 RMK SC1CI1 SLP143 =
2018-08-16 03:00 METAR CYTR 160300Z 00000KT 10SM FEW050 FEW250 20/19 A2995 RMK SC1CI1 SLP141 =
2018-08-16 02:00 METAR CYTR 160200Z 00000KT 15SM FEW050 FEW083 FEW250 21/20 A2994 RMK SC2AC1CI1
                 SLP138 =
2018-08-16 01:00 METAR CYTR 160100Z 05004KT 15SM FEW050 BKN083 BKN250 22/20 A2992 RMK SC2AC2CI1
                 SLP134 =
2018-08-16 00:00 METAR CYTR 160000Z 06004KT 15SM SCT040 BKN083 BKN250 24/21 A2990 RMK SC3AC2CI2
                 MDT CU EMBD SW SLP127 =
2018-08-15 23:00 METAR CYTR 152300Z CCA 08003KT 15SM FEW040 BKN083 BKN250 25/22 A2989 RMK
                 SC2AC3CI2 CB DIST E SLP123 =
2018-08-15 22:00 METAR CYTR 152200Z 16002KT 15SM FEW025 BKN250 26/21 A2988 RMK SC2CI5 CB DIST E
                 SLP119 =
2018-08-15 21:24 METAR CYTR 152124Z 13006KT 15SM BKN025 OVC250 25/20 A2989 RMK SC5CI3 CB DIST E
                 MOVG E OCNL LTNG SLP122 =
2018-08-15 21:00 METAR CYTR 152100Z 04008KT 10SM TS BKN025 OVC250 26/21 A2989 RMK SC5CI3 CB DIST
                 E MOVG E OCNL LTGICCCCG SLP123 =
2018-08-15 20:00 METAR CYTR 152000Z 20005KT 10SM TS BKN034 BKN090 OVC250 27/23 A2988 RMK
                 SC5AC1CI2 CB EMBD E QUAD MOVG E OCNL LTGICCCCG SLP119 =
2018-08-15 19:00 METAR CYTR 151900Z 21010KT 8SM TS BKN034 BKN090 OVC250 28/22 A2988 RMK SC5AC2CI2
                 CB EMBD OVRHD MOVG SE OCNL LTGICCCCG SLP118 =
2018-08-15 18:45 METAR CYTR 151845Z 21011KT 8SM TS BKN034 OVC250 28/23 A2988 RMK SC5CI3 CB EMBD
                 OVRHD MOVG SE OCNL LTGICCCCG SLP119 =
2018-08-15 18:00 METAR CYTR 151800Z 21007KT 8SM BKN034 OVC250 28/23 A2989 RMK SC5CI3 MDT CU
                 ASOCTD HAZY SLP120 =
2018-08-15 17:00 METAR CYTR 151700Z 19007KT 8SM FEW034 BKN250 28/23 A2988 RMK CU1CI6 HAZY SLP119
                 =
2018-08-15 16:00 METAR CYTR 151600Z 20005KT 15SM SCT250 27/22 A2989 RMK CI4 SLP121 =
2018-08-15 15:00 METAR CYTR 151500Z 21005KT 15SM OVC230 26/22 A2989 RMK CI8 SLP121 =
2018-08-15 14:00 METAR CYTR 151400Z 23004KT 15SM FEW050 OVC230 25/20 A2988 RMK SC1CI8 SLP119 =
2018-08-15 13:00 METAR CYTR 151300Z 28003KT 10SM FEW050 OVC230 24/19 A2988 RMK SC2CI6 HAZY SLP119
                 =
2018-08-15 12:00 METAR CYTR 151200Z 25003KT 8SM FEW040 BKN160 OVC230 22/19 A2987 RMK SC2AC4CI2
                 CVCTV CLD EMBD HAZY SLP114 =
2018-08-15 11:00 METAR CYTR 151100Z 27003KT 15SM FEW160 FEW230 19/17 A2986 RMK AC1CI1 CI TR
                 SLP111 =
2018-08-15 10:00 METAR CYTR 151000Z 24005KT 15SM FEW230 20/18 A2985 RMK CI1 SLP108 =
2018-08-15 09:00 METAR CYTR 150900Z 00000KT 15SM SKC 19/17 A2984 RMK SLP104 =
2018-08-15 08:00 METAR CYTR 150800Z 27003KT 15SM SKC 20/17 A2984 RMK SLP104 =
2018-08-15 07:00 METAR CYTR 150700Z 00000KT 15SM SKC 21/16 A2984 RMK SLP105 =
2018-08-15 06:00 METAR CYTR 150600Z 32006KT 15SM SKC 22/16 A2984 RMK SLP106 =

Support USWX by starting your Amazon purchase here.